createdAt,value
2022-11-05T03:25:59.851Z,14.45
2022-11-05T03:28:32.223Z,16.05
2022-11-05T03:31:04.715Z,22.17
2022-11-05T03:33:37.214Z,18.25
2022-11-05T03:38:39.968Z,16.02
2022-11-05T03:41:12.230Z,22.75
2022-11-05T03:43:45.057Z,18.48
2022-11-05T03:46:17.633Z,16.30
2022-11-05T03:48:50.122Z,17.45
2022-11-05T03:51:31.811Z,10.50
2022-11-05T03:54:04.050Z,17.07
2022-11-05T03:56:39.498Z,13.70
2022-11-05T03:59:11.732Z,21.17
2022-11-05T04:01:43.115Z,22.53
2022-11-05T04:04:12.634Z,23.52
2022-11-05T04:06:59.940Z,21.73
2022-11-05T04:09:47.304Z,20.43
2022-11-05T04:12:34.502Z,17.27
2022-11-05T04:15:04.557Z,18.55
2022-11-05T04:17:34.159Z,21.62
2022-11-05T04:20:21.627Z,15.17
2022-11-05T04:23:12.522Z,20.03
2022-11-05T04:25:42.078Z,17.98
2022-11-05T04:28:11.873Z,19.15
2022-11-05T04:30:43.780Z,16.52
2022-11-05T04:33:17.994Z,17.07
2022-11-05T04:35:49.793Z,20.05
2022-11-05T04:38:20.761Z,14.63
2022-11-05T04:40:50.334Z,19.07
2022-11-05T04:43:21.362Z,19.73
2022-11-05T04:45:51.378Z,19.60
2022-11-05T04:48:20.809Z,16.93
2022-11-05T04:50:50.231Z,19.92
2022-11-05T04:53:19.789Z,14.10
2022-11-05T04:55:49.496Z,17.75
2022-11-05T04:58:19.071Z,11.43
2022-11-05T05:00:50.725Z,18.73
2022-11-05T05:03:20.884Z,17.57
2022-11-05T05:05:52.967Z,12.53
2022-11-05T05:08:21.389Z,16.27
2022-11-05T05:10:50.816Z,12.53
2022-11-05T05:13:20.250Z,11.15
2022-11-05T05:15:49.682Z,20.48
2022-11-05T05:18:19.117Z,18.30
2022-11-05T05:21:06.468Z,18.27
2022-11-05T05:23:35.899Z,15.88
2022-11-05T05:26:05.388Z,14.68
2022-11-05T05:28:34.975Z,11.88
2022-11-05T05:31:04.540Z,18.52
2022-11-05T05:33:33.971Z,16.42
2022-11-05T05:36:08.391Z,16.32
2022-11-05T05:38:34.533Z,9.83
2022-11-05T05:41:04.327Z,15.68
2022-11-05T05:43:34.781Z,10.55
2022-11-05T05:46:06.843Z,24.25
2022-11-05T05:48:36.261Z,24.77
2022-11-05T05:51:08.226Z,15.63
2022-11-05T05:53:38.647Z,8.23
2022-11-05T05:56:08.503Z,14.83
2022-11-05T05:58:40.059Z,17.42
2022-11-05T06:01:18.965Z,19.10
2022-11-05T06:03:47.200Z,17.50
2022-11-05T06:06:22.765Z,17.00
2022-11-05T06:08:52.191Z,17.85
2022-11-05T06:11:21.623Z,16.87
2022-11-05T06:13:51.210Z,16.48
2022-11-05T06:16:21.369Z,13.05
2022-11-05T06:18:50.831Z,14.03
2022-11-05T06:21:20.464Z,18.23
2022-11-05T06:23:50.429Z,14.05
2022-11-05T06:26:20.929Z,13.70
2022-11-05T06:28:50.418Z,13.38
2022-11-05T06:31:20.352Z,13.58
2022-11-05T06:33:49.881Z,10.72
2022-11-05T06:36:20.852Z,19.42
2022-11-05T06:38:50.328Z,11.22
2022-11-05T06:41:19.804Z,18.05
2022-11-05T06:43:49.297Z,10.28
2022-11-05T06:46:18.820Z,7.12
2022-11-05T06:48:49.172Z,17.50
2022-11-05T06:51:18.975Z,13.22
2022-11-05T06:53:48.407Z,15.32
2022-11-05T06:56:17.907Z,15.25
2022-11-05T06:58:47.377Z,14.87
2022-11-05T07:01:16.916Z,11.55
2022-11-05T07:03:48.441Z,16.55
2022-11-05T07:06:18.012Z,15.80
2022-11-05T07:08:47.436Z,12.13
2022-11-05T07:11:16.891Z,16.17
2022-11-05T07:13:46.317Z,20.23
2022-11-05T07:16:15.814Z,16.23
2022-11-05T07:18:45.256Z,13.22
2022-11-05T07:21:15.256Z,17.87
2022-11-05T07:23:44.671Z,20.80
2022-11-05T07:26:14.271Z,19.35
2022-11-05T07:28:43.693Z,16.12
2022-11-05T07:31:13.118Z,18.42
2022-11-05T07:33:42.620Z,27.07
2022-11-05T07:36:12.057Z,19.95
2022-11-05T07:38:41.486Z,18.65
2022-11-05T07:41:10.991Z,21.33
2022-11-05T07:43:40.418Z,21.07
2022-11-05T07:46:13.632Z,15.68
2022-11-05T07:48:40.995Z,26.80
2022-11-05T07:51:10.412Z,17.70
2022-11-05T07:53:45.048Z,25.00
2022-11-05T07:56:13.101Z,18.40
2022-11-05T07:58:42.732Z,26.82
2022-11-05T08:01:12.229Z,19.98
2022-11-05T08:03:42.392Z,21.90
2022-11-05T08:06:11.919Z,15.48
2022-11-05T08:08:41.351Z,19.85
2022-11-05T08:11:12.935Z,14.18
2022-11-05T08:13:44.017Z,15.38
2022-11-05T08:16:13.642Z,27.62
2022-11-05T08:18:43.083Z,18.00
2022-11-05T08:21:12.823Z,18.23
2022-11-05T08:23:43.268Z,22.13
2022-11-05T08:26:12.699Z,23.90
2022-11-05T08:28:42.134Z,21.25
2022-11-05T08:33:40.231Z,20.02
2022-11-05T08:36:09.810Z,23.15
2022-11-05T08:38:39.401Z,21.45
2022-11-05T08:41:08.838Z,15.25
2022-11-05T08:43:38.323Z,18.57
2022-11-05T08:46:07.858Z,17.00
2022-11-05T08:48:37.539Z,12.93
2022-11-05T08:51:07.312Z,18.02
2022-11-05T08:53:36.909Z,17.05
2022-11-05T08:56:06.583Z,15.50
2022-11-05T08:58:36.925Z,14.53
2022-11-05T09:01:06.627Z,14.58
2022-11-05T09:03:36.755Z,17.80
2022-11-05T09:06:06.467Z,13.88
2022-11-05T09:08:35.979Z,18.62
2022-11-05T09:11:05.480Z,15.53
2022-11-05T09:13:35.025Z,15.80
2022-11-05T09:16:04.635Z,13.48
2022-11-05T09:18:34.924Z,12.05
2022-11-05T09:21:04.518Z,9.60
2022-11-05T09:23:34.013Z,11.25
2022-11-05T09:26:03.458Z,16.87
2022-11-05T09:28:33.291Z,15.48
2022-11-05T09:31:08.498Z,14.38
2022-11-05T09:33:40.100Z,14.93
2022-11-05T09:36:10.419Z,14.00
2022-11-05T09:38:39.927Z,13.20
2022-11-05T09:41:31.252Z,9.60
2022-11-05T09:44:10.164Z,8.77
2022-11-05T09:46:42.660Z,10.75
2022-11-05T09:49:15.223Z,11.08
2022-11-05T09:51:44.791Z,13.48
2022-11-05T09:54:16.282Z,7.33
2022-11-05T09:56:46.955Z,10.90
2022-11-05T09:59:25.331Z,12.30
2022-11-05T10:01:57.909Z,11.38
2022-11-05T10:04:31.260Z,9.38
2022-11-05T10:07:03.749Z,7.50
2022-11-05T10:09:40.278Z,11.45
2022-11-05T10:12:12.746Z,9.23
2022-11-05T10:14:51.101Z,8.30
2022-11-05T10:17:26.508Z,9.15
2022-11-05T10:19:59.036Z,7.22
2022-11-05T10:22:28.605Z,6.17
2022-11-05T10:24:58.278Z,8.73
2022-11-05T10:27:30.791Z,8.85
2022-11-05T10:30:00.764Z,7.87
2022-11-05T10:32:35.809Z,9.88
2022-11-05T10:35:08.197Z,15.63
2022-11-05T10:37:40.801Z,10.65
2022-11-05T10:40:15.566Z,13.87
2022-11-05T10:43:04.881Z,10.08
2022-11-05T10:45:52.471Z,9.75
2022-11-05T10:48:43.652Z,8.90
2022-11-05T10:51:11.726Z,9.30
2022-11-05T10:53:44.105Z,7.50
2022-11-05T10:56:31.792Z,14.55
2022-11-05T10:59:06.688Z,9.77
2022-11-05T11:01:34.987Z,7.12
2022-11-05T11:04:19.825Z,9.55
2022-11-05T11:06:52.595Z,12.05
2022-11-05T11:12:06.795Z,6.57
2022-11-05T11:14:36.336Z,8.80
2022-11-05T11:17:27.986Z,10.63
2022-11-05T11:20:29.570Z,9.27
2022-11-05T11:23:02.074Z,8.93
2022-11-05T11:25:34.591Z,14.13
2022-11-05T11:28:06.849Z,7.03
2022-11-05T11:30:36.432Z,7.37
2022-11-05T11:33:09.304Z,11.45
2022-11-05T11:35:39.946Z,10.13
2022-11-05T11:38:12.517Z,8.90
2022-11-05T11:40:42.982Z,8.98
2022-11-05T11:43:24.528Z,13.20
2022-11-05T11:46:02.146Z,6.90
2022-11-05T11:48:30.326Z,7.40
2022-11-05T11:51:02.066Z,6.72
2022-11-05T11:53:36.553Z,10.17
2022-11-05T11:56:11.856Z,5.12
2022-11-05T11:58:47.421Z,11.95
2022-11-05T12:01:39.771Z,13.15
2022-11-05T12:04:24.575Z,9.73
2022-11-05T12:07:16.707Z,9.55
2022-11-05T12:10:05.780Z,7.60
2022-11-05T12:12:40.832Z,9.53
2022-11-05T12:15:25.419Z,9.95
2022-11-05T12:18:12.677Z,8.63
2022-11-05T12:20:58.480Z,10.98
2022-11-05T12:23:55.335Z,9.35
2022-11-05T12:26:44.488Z,10.15
2022-11-05T12:29:38.041Z,7.78
2022-11-05T12:32:10.647Z,7.83
2022-11-05T12:34:48.702Z,8.50
2022-11-05T12:37:36.384Z,13.15
2022-11-05T12:40:17.824Z,8.53
2022-11-05T12:43:11.752Z,10.48
2022-11-05T12:46:03.820Z,8.70
2022-11-05T12:48:48.436Z,6.37
2022-11-05T12:51:32.806Z,9.25
2022-11-05T12:54:13.544Z,8.27
2022-11-05T12:56:51.323Z,7.40
2022-11-05T12:59:33.498Z,7.08
2022-11-05T13:02:06.065Z,8.95
2022-11-05T13:04:53.502Z,10.38
2022-11-05T13:07:25.984Z,7.12
2022-11-05T13:10:04.239Z,9.95
2022-11-05T13:12:36.726Z,8.98
2022-11-05T13:15:18.120Z,6.35
2022-11-05T13:17:56.528Z,9.35
2022-11-05T13:20:35.044Z,7.35
2022-11-05T13:23:07.553Z,8.47
2022-11-05T13:25:40.092Z,7.05
2022-11-05T13:28:21.872Z,5.80
2022-11-05T13:30:57.514Z,11.50
2022-11-05T13:33:47.869Z,7.60
2022-11-05T13:36:41.141Z,9.03
2022-11-05T13:39:22.474Z,9.50
2022-11-05T13:41:55.075Z,8.48
2022-11-05T13:44:53.357Z,6.28
2022-11-05T13:47:37.738Z,11.03
2022-11-05T13:50:16.239Z,7.92
2022-11-05T13:53:22.019Z,11.08
2022-11-05T13:56:12.492Z,10.45
2022-11-05T13:58:56.585Z,8.78
2022-11-05T14:01:41.386Z,9.63
2022-11-05T14:04:23.485Z,8.03
2022-11-05T14:06:53.237Z,8.67
2022-11-05T14:09:25.997Z,8.35
2022-11-05T14:12:00.136Z,9.28
2022-11-05T14:14:32.607Z,11.08
2022-11-05T14:17:17.044Z,10.85
2022-11-05T14:20:00.241Z,6.33
2022-11-05T14:22:36.160Z,7.80
2022-11-05T14:25:25.428Z,10.98
2022-11-05T14:27:55.407Z,10.98
2022-11-05T14:30:44.933Z,9.18
2022-11-05T14:33:17.446Z,8.83
2022-11-05T14:35:46.966Z,9.80
2022-11-05T14:38:22.552Z,8.13
2022-11-05T14:40:57.973Z,7.05
2022-11-05T14:43:30.249Z,7.95
2022-11-05T14:46:07.350Z,8.00
2022-11-05T14:48:45.564Z,7.00
2022-11-05T14:51:36.093Z,9.70
2022-11-05T14:54:17.710Z,7.90
2022-11-05T14:56:55.904Z,9.05
2022-11-05T14:59:32.116Z,8.88
2022-11-05T15:02:07.535Z,13.05
2022-11-05T15:04:43.949Z,6.00
2022-11-05T15:07:16.690Z,7.40
2022-11-05T15:09:52.519Z,13.40
2022-11-05T15:12:44.643Z,7.87
2022-11-05T15:15:29.043Z,7.70
2022-11-05T15:18:28.181Z,8.30
2022-11-05T15:21:00.947Z,10.38
2022-11-05T15:23:39.188Z,8.10
2022-11-05T15:26:23.683Z,10.13
2022-11-05T15:28:55.277Z,6.47
2022-11-05T15:31:27.777Z,6.55
2022-11-05T15:34:19.753Z,6.80
2022-11-05T15:36:59.780Z,7.08
2022-11-05T15:39:34.602Z,10.98
2022-11-05T15:42:06.924Z,4.35
2022-11-05T15:44:48.918Z,11.35
2022-11-05T15:47:24.046Z,10.53
2022-11-05T15:50:02.195Z,7.65
2022-11-05T15:52:45.223Z,8.85
2022-11-05T15:55:18.454Z,9.50
2022-11-05T15:58:05.654Z,6.37
2022-11-05T16:00:38.194Z,4.50
2022-11-05T16:03:28.979Z,7.20
2022-11-05T16:06:00.387Z,9.10
2022-11-05T16:08:31.999Z,7.33
2022-11-05T16:11:02.618Z,6.33
2022-11-05T16:13:41.212Z,7.72
2022-11-05T16:16:21.443Z,7.92
2022-11-05T16:18:50.883Z,9.98
2022-11-05T16:21:23.491Z,8.18
2022-11-05T16:23:58.608Z,6.83
2022-11-05T16:29:19.224Z,6.58
2022-11-05T16:31:54.654Z,8.88
2022-11-05T16:34:29.965Z,6.03
2022-11-05T16:37:00.479Z,5.70
2022-11-05T16:39:29.917Z,10.15
2022-11-05T16:41:59.495Z,8.20
2022-11-05T16:44:29.044Z,10.45
2022-11-05T16:46:59.143Z,8.78
2022-11-05T16:49:28.571Z,8.38
2022-11-05T16:52:00.301Z,6.65
2022-11-05T16:54:29.726Z,8.45
2022-11-05T16:57:00.291Z,10.08
2022-11-05T16:59:30.831Z,9.33
2022-11-05T17:02:01.021Z,8.25
2022-11-05T17:04:30.708Z,8.43
2022-11-05T17:07:00.173Z,15.13
2022-11-05T17:09:32.281Z,15.65
2022-11-05T17:12:02.697Z,8.50
2022-11-05T17:14:32.191Z,10.08
2022-11-05T17:17:02.406Z,10.43
2022-11-05T17:19:31.909Z,17.45
2022-11-05T17:22:01.443Z,10.28
2022-11-05T17:24:30.968Z,7.60
2022-11-05T17:27:00.395Z,7.00
2022-11-05T17:29:29.837Z,7.22
2022-11-05T17:32:00.851Z,8.98
2022-11-05T17:34:30.276Z,12.70
2022-11-05T17:36:59.818Z,11.68
2022-11-05T17:39:31.770Z,11.83
2022-11-05T17:42:00.295Z,14.10
2022-11-05T17:44:29.813Z,38.65
2022-11-05T17:46:59.286Z,35.20
2022-11-05T17:49:28.720Z,27.93
2022-11-05T17:51:58.199Z,38.70
2022-11-05T17:54:27.753Z,40.67
2022-11-05T17:56:57.200Z,39.33
2022-11-05T17:59:26.720Z,35.58
2022-11-05T18:01:56.304Z,32.63
2022-11-05T18:04:25.774Z,30.62
2022-11-05T18:06:56.034Z,27.00
2022-11-05T18:09:25.814Z,26.30
2022-11-05T18:11:55.310Z,32.28
2022-11-05T18:14:24.911Z,24.27
2022-11-05T18:16:56.073Z,23.62
2022-11-05T18:19:25.445Z,18.48
2022-11-05T18:21:55.594Z,18.07
2022-11-05T18:24:25.113Z,18.60
2022-11-05T18:26:54.558Z,17.12
2022-11-05T18:29:23.969Z,15.25
2022-11-05T18:31:53.435Z,14.23
2022-11-05T18:34:22.862Z,18.42
2022-11-05T18:36:56.388Z,15.45
2022-11-05T18:39:25.819Z,13.03
2022-11-05T18:41:55.362Z,14.57
2022-11-05T18:44:25.341Z,14.00
2022-11-05T18:46:58.840Z,13.03
2022-11-05T18:49:26.517Z,14.05
2022-11-05T18:51:55.960Z,18.70
2022-11-05T18:54:25.480Z,26.60
2022-11-05T18:56:55.482Z,23.18
2022-11-05T18:59:40.920Z,21.42
2022-11-05T19:01:57.061Z,24.23
2022-11-05T19:04:27.038Z,25.65
2022-11-05T19:07:01.511Z,25.37
2022-11-05T19:09:27.935Z,24.72
2022-11-05T19:11:57.374Z,20.57
2022-11-05T19:14:26.878Z,22.35
2022-11-05T19:16:57.738Z,22.60
2022-11-05T19:19:29.317Z,29.45
2022-11-05T19:21:59.340Z,29.50
2022-11-05T19:24:29.693Z,27.05
2022-11-05T19:26:59.354Z,27.95
2022-11-05T19:29:28.966Z,25.92
2022-11-05T19:31:59.374Z,26.68
2022-11-05T19:34:28.934Z,26.42
2022-11-05T19:36:58.378Z,25.32
2022-11-05T19:39:27.830Z,62.65
2022-11-05T19:42:02.986Z,37.88
2022-11-05T19:44:29.056Z,32.33
2022-11-05T19:46:58.667Z,39.90
2022-11-05T19:49:29.740Z,61.10
2022-11-05T19:51:59.613Z,42.17
2022-11-05T19:54:29.105Z,33.50
2022-11-05T19:56:58.803Z,41.42
2022-11-05T19:59:28.658Z,50.03
2022-11-05T20:01:58.191Z,41.68
2022-11-05T20:04:27.740Z,47.33
2022-11-05T20:06:57.297Z,48.68
2022-11-05T20:09:27.232Z,50.28
2022-11-05T20:11:57.341Z,52.05
2022-11-05T20:14:28.179Z,53.78
2022-11-05T20:16:57.751Z,60.33
2022-11-05T20:19:27.255Z,59.53
2022-11-05T20:21:58.251Z,55.35
2022-11-05T20:24:27.819Z,51.73
2022-11-05T20:26:58.423Z,48.05
2022-11-05T20:29:33.819Z,44.35
2022-11-05T20:32:00.489Z,53.20
2022-11-05T20:34:31.881Z,53.33
2022-11-05T20:37:02.165Z,57.95
2022-11-05T20:39:31.746Z,63.13
2022-11-05T20:42:01.284Z,71.50
2022-11-05T20:44:30.705Z,66.90
2022-11-05T20:47:00.773Z,60.43
2022-11-05T20:49:30.291Z,58.48
2022-11-05T20:51:59.714Z,62.38
2022-11-05T20:54:29.232Z,57.58
2022-11-05T20:56:58.678Z,62.03
2022-11-05T20:59:28.116Z,63.42
2022-11-05T21:01:57.694Z,60.28
2022-11-05T21:04:27.637Z,68.87
2022-11-05T21:06:57.090Z,61.35
2022-11-05T21:09:26.602Z,62.23
2022-11-05T21:12:10.882Z,61.58
2022-11-05T21:14:47.294Z,63.58
2022-11-05T21:17:16.804Z,67.40
2022-11-05T21:19:46.225Z,72.45
2022-11-05T21:22:15.749Z,64.90
2022-11-05T21:24:45.280Z,67.50
2022-11-05T21:27:14.719Z,68.37
2022-11-05T21:29:44.293Z,65.87
2022-11-05T21:32:13.760Z,63.97
2022-11-05T21:34:43.265Z,61.70
2022-11-05T21:37:13.257Z,58.08
2022-11-05T21:39:42.974Z,56.98
2022-11-05T21:42:12.408Z,57.10
2022-11-05T21:44:41.837Z,62.43
2022-11-05T21:47:11.379Z,64.40
2022-11-05T21:49:40.809Z,60.38
2022-11-05T21:52:30.075Z,62.17
2022-11-05T21:55:17.649Z,55.15
2022-11-05T21:58:04.730Z,51.75
2022-11-05T22:00:34.298Z,51.92
2022-11-05T22:03:03.726Z,50.52
2022-11-05T22:05:33.366Z,48.35
2022-11-05T22:08:03.536Z,44.58
2022-11-05T22:10:32.948Z,44.90
2022-11-05T22:13:02.561Z,45.55
2022-11-05T22:15:32.061Z,42.10
2022-11-05T22:18:01.501Z,46.77
2022-11-05T22:20:31.026Z,50.45
2022-11-05T22:23:00.460Z,47.08
2022-11-05T22:25:29.890Z,50.67
2022-11-05T22:27:59.386Z,47.40
2022-11-05T22:30:28.941Z,53.68
2022-11-05T22:32:58.381Z,46.95
2022-11-05T22:35:27.903Z,48.78
2022-11-05T22:37:57.424Z,54.15
2022-11-05T22:40:27.048Z,46.73
2022-11-05T22:42:56.732Z,45.10
2022-11-05T22:45:26.201Z,47.13
2022-11-05T22:47:55.637Z,44.93
2022-11-05T22:50:25.141Z,45.08
2022-11-05T22:52:54.644Z,42.33
2022-11-05T22:55:24.060Z,45.35
2022-11-05T22:57:54.026Z,38.23
2022-11-05T23:00:26.710Z,36.55
2022-11-05T23:02:56.285Z,37.83
2022-11-05T23:05:26.215Z,34.00
2022-11-05T23:08:13.844Z,38.63
2022-11-05T23:11:01.896Z,42.00
2022-11-05T23:13:31.884Z,37.30
2022-11-05T23:16:19.337Z,39.20
2022-11-05T23:19:07.143Z,34.92
2022-11-05T23:21:54.650Z,45.63
2022-11-05T23:24:24.192Z,43.70
2022-11-05T23:26:54.203Z,38.95
2022-11-05T23:29:26.132Z,42.75
2022-11-05T23:32:13.846Z,36.13
2022-11-05T23:34:43.458Z,35.10
2022-11-05T23:37:30.867Z,35.95
2022-11-05T23:40:00.438Z,34.92
2022-11-05T23:42:47.904Z,27.77
2022-11-05T23:45:35.662Z,29.48
2022-11-05T23:48:17.083Z,30.23
2022-11-05T23:50:52.569Z,27.37
2022-11-05T23:53:22.558Z,24.05
2022-11-05T23:55:52.366Z,25.37
2022-11-05T23:58:21.795Z,26.15
